TAF and METAR

METAR for F3-Fb-1 Sea

EHFD 230925Z AUTO 24015KT 9999 NSC 11/09 Q1014 W///H///
Report created 23. mai 11:25
report generated by an automatic observation system. wind 15 knots from WSW (240°) visibility > 10km No significant clouds. Temperature 11° with dewpoint at 9° (Humidity 87.48%) Pressure 1014 hPa
No TAF available for F3-Fb-1 Sea
F3-Fb-1 Sea in Netherlands at 50m

Latest 5 airports